Time;durP1;ratioP1;P1;durP2;ratioP2;P2;SDS_P1;SDS_P2;PMS_P1;PMS_P2;Temp;Humidity;BMP_temperature;BMP_pressure;BME280_temperature;BME280_humidity;BME280_pressure;Samples;Min_cycle;Max_cycle;Signal;HPM_P1;HPM_P2
2023/07/19 00:02:15;;;;;;;17.38;6.35;;;;;;;;;;4976171;28;20023;-68
2023/07/19 00:04:42;;;;;;;14.05;6.88;;;;;;;;;;4975962;28;20033;-69
2023/07/19 00:07:08;;;;;;;16.65;7.22;;;;;;;;;;4976053;28;20026;-68
2023/07/19 00:09:34;;;;;;;18.30;7.82;;;;;;;;;;4975801;28;20021;-69
2023/07/19 00:12:00;;;;;;;16.15;7.93;;;;;;;;;;4975910;28;20368;-68
2023/07/19 00:14:27;;;;;;;14.10;8.70;;;;;;;;;;4975642;28;20046;-68
2023/07/19 00:16:53;;;;;;;15.73;8.63;;;;;;;;;;4975606;28;20483;-69
2023/07/19 00:19:19;;;;;;;16.20;8.70;;;;;;;;;;4975533;28;20042;-68
2023/07/19 00:21:46;;;;;;;19.58;9.05;;;;;;;;;;4975841;28;20031;-68
2023/07/19 00:24:12;;;;;;;18.38;9.10;;;;;;;;;;4975848;28;20033;-68
2023/07/19 00:26:38;;;;;;;17.20;8.65;;;;;;;;;;4975608;28;20476;-68
2023/07/19 00:29:05;;;;;;;24.10;9.55;;;;;;;;;;4975637;28;20031;-68
2023/07/19 00:31:31;;;;;;;14.13;8.88;;;;;;;;;;4975397;28;20034;-69
2023/07/19 00:33:57;;;;;;;17.33;9.70;;;;;;;;;;4975235;28;20523;-68
2023/07/19 00:36:24;;;;;;;19.75;9.23;;;;;;;;;;4975386;28;20027;-68
2023/07/19 00:38:50;;;;;;;17.27;8.95;;;;;;;;;;4975346;28;20054;-68
2023/07/19 00:41:18;;;;;;;18.40;9.38;;;;;;;;;;4975100;28;20566;-68
2023/07/19 00:43:44;;;;;;;21.45;9.80;;;;;;;;;;4974370;28;20053;-68
2023/07/19 00:46:10;;;;;;;17.40;9.40;;;;;;;;;;4975491;28;20030;-68
2023/07/19 00:48:37;;;;;;;20.45;9.68;;;;;;;;;;4974852;28;20435;-68
2023/07/19 00:51:03;;;;;;;15.43;9.55;;;;;;;;;;4975485;28;20038;-68
2023/07/19 00:53:30;;;;;;;17.83;10.20;;;;;;;;;;4975290;28;20033;-68
2023/07/19 00:55:56;;;;;;;19.30;9.98;;;;;;;;;;4974947;28;20033;-68
2023/07/19 00:58:23;;;;;;;19.40;9.80;;;;;;;;;;4975177;28;20031;-68
2023/07/19 01:00:51;;;;;;;17.25;9.13;;;;;;;;;;4973811;28;20039;-69
2023/07/19 01:03:17;;;;;;;13.98;9.30;;;;;;;;;;4974651;28;20033;-68
2023/07/19 01:05:43;;;;;;;22.17;9.63;;;;;;;;;;4974920;28;20031;-68
2023/07/19 01:08:10;;;;;;;15.68;9.45;;;;;;;;;;4974923;28;20073;-68
2023/07/19 01:10:37;;;;;;;16.67;9.35;;;;;;;;;;4974758;28;20019;-68
2023/07/19 01:13:04;;;;;;;16.38;9.98;;;;;;;;;;4974752;28;20030;-69
2023/07/19 01:15:30;;;;;;;17.50;8.82;;;;;;;;;;4974437;28;20054;-68
2023/07/19 01:17:57;;;;;;;14.70;9.93;;;;;;;;;;4974270;28;20034;-68
2023/07/19 01:20:23;;;;;;;22.17;9.25;;;;;;;;;;4974460;28;20035;-68
2023/07/19 01:22:49;;;;;;;17.58;9.52;;;;;;;;;;4974544;28;20033;-68
2023/07/19 01:25:16;;;;;;;15.02;9.68;;;;;;;;;;4974560;28;20073;-68
2023/07/19 01:27:42;;;;;;;15.63;9.27;;;;;;;;;;4974543;28;20484;-68
2023/07/19 01:30:09;;;;;;;13.50;8.88;;;;;;;;;;4974281;28;20025;-68
2023/07/19 01:32:35;;;;;;;16.00;9.40;;;;;;;;;;4974060;28;20399;-69
2023/07/19 01:35:01;;;;;;;17.08;9.23;;;;;;;;;;4974624;28;20034;-68
2023/07/19 01:37:28;;;;;;;17.23;9.48;;;;;;;;;;4974338;28;20022;-69
2023/07/19 01:39:55;;;;;;;17.95;9.68;;;;;;;;;;4974251;28;20031;-67
2023/07/19 01:42:21;;;;;;;18.55;10.00;;;;;;;;;;4974471;28;20076;-68
2023/07/19 01:44:48;;;;;;;18.15;9.18;;;;;;;;;;4973129;28;20364;-68
2023/07/19 01:47:14;;;;;;;15.25;9.43;;;;;;;;;;4973825;28;20031;-69
2023/07/19 01:49:40;;;;;;;14.25;8.63;;;;;;;;;;4974039;28;20023;-69
2023/07/19 01:52:07;;;;;;;16.42;9.48;;;;;;;;;;4974318;28;20025;-68
2023/07/19 01:54:33;;;;;;;22.15;9.65;;;;;;;;;;4973862;28;20031;-68
2023/07/19 01:56:59;;;;;;;15.60;8.98;;;;;;;;;;4973980;28;20037;-67
2023/07/19 01:59:26;;;;;;;14.57;8.85;;;;;;;;;;4973863;28;20041;-67
2023/07/19 02:01:53;;;;;;;20.08;9.30;;;;;;;;;;4972486;28;20022;-67
2023/07/19 02:04:19;;;;;;;21.98;9.40;;;;;;;;;;4973834;28;20030;-67
2023/07/19 02:06:46;;;;;;;14.10;9.02;;;;;;;;;;4973778;28;20021;-68
2023/07/19 02:09:13;;;;;;;17.90;8.40;;;;;;;;;;4974083;28;20027;-68
2023/07/19 02:11:40;;;;;;;18.98;9.38;;;;;;;;;;4973832;28;20053;-68
2023/07/19 02:14:06;;;;;;;17.67;9.20;;;;;;;;;;4973613;28;20410;-68
2023/07/19 02:16:32;;;;;;;15.35;8.55;;;;;;;;;;4973275;28;20037;-68
2023/07/19 02:18:59;;;;;;;16.10;8.95;;;;;;;;;;4973754;28;20039;-68
2023/07/19 02:21:25;;;;;;;15.43;9.45;;;;;;;;;;4973704;28;20039;-68
2023/07/19 02:23:51;;;;;;;21.60;9.05;;;;;;;;;;4973583;28;20487;-68
2023/07/19 02:26:18;;;;;;;14.07;8.60;;;;;;;;;;4974135;28;20033;-68
2023/07/19 02:28:44;;;;;;;17.73;9.20;;;;;;;;;;4973694;28;20029;-68
2023/07/19 02:31:10;;;;;;;15.15;8.70;;;;;;;;;;4973285;28;20476;-68
2023/07/19 02:33:37;;;;;;;15.10;8.90;;;;;;;;;;4973583;28;20019;-68
2023/07/19 02:36:03;;;;;;;16.08;9.70;;;;;;;;;;4973653;28;20515;-68
2023/07/19 02:38:29;;;;;;;19.70;9.10;;;;;;;;;;4973369;28;20067;-68
2023/07/19 02:40:59;;;;;;;17.48;8.68;;;;;;;;;;4973494;28;20029;-68
2023/07/19 02:43:26;;;;;;;14.27;8.68;;;;;;;;;;4973442;28;20027;-68
2023/07/19 02:45:53;;;;;;;18.48;9.75;;;;;;;;;;4973109;28;20031;-68
2023/07/19 02:48:19;;;;;;;16.35;8.93;;;;;;;;;;4973624;28;20031;-68
2023/07/19 02:50:46;;;;;;;19.35;9.40;;;;;;;;;;4973685;28;20037;-68
2023/07/19 02:53:12;;;;;;;16.70;8.68;;;;;;;;;;4973342;28;20031;-68
2023/07/19 02:55:39;;;;;;;14.80;9.13;;;;;;;;;;4973283;28;20022;-68
2023/07/19 02:58:06;;;;;;;16.92;9.50;;;;;;;;;;4973620;28;20030;-68
2023/07/19 03:00:32;;;;;;;20.10;9.30;;;;;;;;;;4972854;28;20386;-68
2023/07/19 03:02:58;;;;;;;15.02;9.20;;;;;;;;;;4973435;28;20033;-68
2023/07/19 03:05:25;;;;;;;16.17;9.68;;;;;;;;;;4973233;28;20443;-68
2023/07/19 03:07:51;;;;;;;14.52;9.45;;;;;;;;;;4974949;28;20027;-68
2023/07/19 03:10:18;;;;;;;12.98;9.55;;;;;;;;;;4977189;28;20037;-68
2023/07/19 03:12:44;;;;;;;18.15;9.60;;;;;;;;;;4976961;28;20023;-68
2023/07/19 03:15:10;;;;;;;14.95;9.15;;;;;;;;;;4976465;28;20126;-68
2023/07/19 03:17:37;;;;;;;17.33;9.77;;;;;;;;;;4976826;28;20506;-68
2023/07/19 03:20:04;;;;;;;18.20;9.30;;;;;;;;;;4976715;28;20042;-68
2023/07/19 03:22:30;;;;;;;17.27;9.65;;;;;;;;;;4976905;28;20029;-68
2023/07/19 03:24:56;;;;;;;17.30;9.98;;;;;;;;;;4977050;28;20061;-68
2023/07/19 03:27:23;;;;;;;13.30;9.40;;;;;;;;;;4976642;28;20196;-68
2023/07/19 03:29:49;;;;;;;17.05;10.13;;;;;;;;;;4975045;28;20049;-68
2023/07/19 03:32:15;;;;;;;17.85;10.23;;;;;;;;;;4976768;28;20037;-68
2023/07/19 03:34:41;;;;;;;18.88;9.43;;;;;;;;;;4976662;28;20609;-68
2023/07/19 03:37:08;;;;;;;18.88;10.95;;;;;;;;;;4976695;28;20027;-68
2023/07/19 03:39:34;;;;;;;18.65;9.90;;;;;;;;;;4976366;28;20045;-68
2023/07/19 03:42:01;;;;;;;20.25;10.43;;;;;;;;;;4976463;28;20065;-68
2023/07/19 03:44:27;;;;;;;17.52;10.07;;;;;;;;;;4974860;28;20383;-68
2023/07/19 03:46:53;;;;;;;16.52;9.88;;;;;;;;;;4976353;28;20390;-68
2023/07/19 03:49:20;;;;;;;17.80;10.30;;;;;;;;;;4976318;28;20041;-68
2023/07/19 03:51:46;;;;;;;16.90;9.80;;;;;;;;;;4976244;28;20019;-69
2023/07/19 03:54:12;;;;;;;14.55;10.43;;;;;;;;;;4976484;28;20035;-68
2023/07/19 03:56:38;;;;;;;19.73;9.68;;;;;;;;;;4975836;28;20509;-68
2023/07/19 03:59:05;;;;;;;15.70;10.05;;;;;;;;;;4976021;28;20050;-68
2023/07/19 04:01:33;;;;;;;18.75;9.93;;;;;;;;;;4976041;28;20023;-68
2023/07/19 04:03:59;;;;;;;15.15;10.30;;;;;;;;;;4975032;28;20035;-68
2023/07/19 04:06:26;;;;;;;16.88;10.43;;;;;;;;;;4975893;28;20080;-68
2023/07/19 04:08:52;;;;;;;16.50;10.05;;;;;;;;;;4975872;28;20399;-68
2023/07/19 04:11:18;;;;;;;16.35;9.88;;;;;;;;;;4975785;28;20030;-68
2023/07/19 04:13:45;;;;;;;13.80;9.52;;;;;;;;;;4975535;28;20039;-69
2023/07/19 04:16:11;;;;;;;13.80;9.63;;;;;;;;;;4975724;28;20027;-68
2023/07/19 04:18:38;;;;;;;18.58;10.23;;;;;;;;;;4975908;28;20034;-68
2023/07/19 04:21:04;;;;;;;16.67;9.90;;;;;;;;;;4975511;28;20040;-68
2023/07/19 04:23:30;;;;;;;21.35;9.95;;;;;;;;;;4975698;28;20091;-68
2023/07/19 04:25:57;;;;;;;17.88;10.43;;;;;;;;;;4975499;28;20046;-68
2023/07/19 04:28:23;;;;;;;15.45;10.40;;;;;;;;;;4975549;28;20430;-68
2023/07/19 04:30:49;;;;;;;17.13;9.95;;;;;;;;;;4975577;28;20035;-68
2023/07/19 04:33:16;;;;;;;17.40;10.23;;;;;;;;;;4975527;28;20510;-68
2023/07/19 04:35:42;;;;;;;15.82;10.48;;;;;;;;;;4974363;28;20034;-68
2023/07/19 04:38:08;;;;;;;16.77;10.00;;;;;;;;;;4975319;28;20022;-68
2023/07/19 04:40:35;;;;;;;17.15;9.45;;;;;;;;;;4975143;28;20030;-68
2023/07/19 04:43:01;;;;;;;15.27;9.55;;;;;;;;;;4975215;28;20034;-68
2023/07/19 04:45:28;;;;;;;15.23;9.63;;;;;;;;;;4975063;28;20073;-68
2023/07/19 04:47:55;;;;;;;18.08;9.68;;;;;;;;;;4975415;28;20025;-68
2023/07/19 04:50:23;;;;;;;17.10;9.40;;;;;;;;;;4975196;28;20023;-69
2023/07/19 04:52:50;;;;;;;15.63;9.40;;;;;;;;;;4975077;28;20023;-68
2023/07/19 04:55:16;;;;;;;15.98;9.02;;;;;;;;;;4974763;28;20046;-68
2023/07/19 04:57:42;;;;;;;15.73;8.80;;;;;;;;;;4975129;28;20023;-68
2023/07/19 05:00:11;;;;;;;15.13;9.32;;;;;;;;;;4974795;28;20035;-68
2023/07/19 05:02:41;;;;;;;15.95;8.65;;;;;;;;;;4975023;28;20033;-68
2023/07/19 05:05:07;;;;;;;14.13;9.30;;;;;;;;;;4974935;28;20378;-68
2023/07/19 05:07:34;;;;;;;19.42;9.48;;;;;;;;;;4974859;28;20019;-68
2023/07/19 05:10:02;;;;;;;14.75;9.15;;;;;;;;;;4974780;28;20026;-68
2023/07/19 05:12:29;;;;;;;16.77;9.43;;;;;;;;;;4974890;28;20043;-68
2023/07/19 05:14:56;;;;;;;15.57;9.15;;;;;;;;;;4974695;28;20039;-68
2023/07/19 05:17:22;;;;;;;12.60;8.75;;;;;;;;;;4974548;28;20080;-68
2023/07/19 05:19:48;;;;;;;14.95;9.57;;;;;;;;;;4974472;28;20039;-68
2023/07/19 05:22:15;;;;;;;14.82;8.65;;;;;;;;;;4974608;28;20023;-68
2023/07/19 05:24:41;;;;;;;18.27;8.80;;;;;;;;;;4974335;28;20063;-68
2023/07/19 05:27:07;;;;;;;18.63;8.63;;;;;;;;;;4974397;28;20509;-68
2023/07/19 05:29:34;;;;;;;21.23;8.90;;;;;;;;;;4974329;28;20100;-68
2023/07/19 05:32:01;;;;;;;17.13;8.70;;;;;;;;;;4974487;28;20049;-68
2023/07/19 05:34:27;;;;;;;17.42;8.80;;;;;;;;;;4974483;28;20026;-69
2023/07/19 05:36:53;;;;;;;15.65;8.65;;;;;;;;;;4974359;28;20033;-68
2023/07/19 05:39:20;;;;;;;14.57;8.85;;;;;;;;;;4973970;28;20034;-68
2023/07/19 05:41:46;;;;;;;16.67;8.40;;;;;;;;;;4974571;28;20027;-68
2023/07/19 05:44:12;;;;;;;12.48;8.32;;;;;;;;;;4974249;28;20051;-68
2023/07/19 05:46:39;;;;;;;16.33;8.98;;;;;;;;;;4974407;28;20053;-68
2023/07/19 05:49:05;;;;;;;14.63;8.35;;;;;;;;;;4973975;28;20414;-68
2023/07/19 05:51:32;;;;;;;16.27;8.15;;;;;;;;;;4974132;28;20019;-68
2023/07/19 05:53:58;;;;;;;16.33;9.00;;;;;;;;;;4973791;28;20030;-68
2023/07/19 05:56:24;;;;;;;14.38;8.40;;;;;;;;;;4973629;28;20093;-68
2023/07/19 05:58:51;;;;;;;23.35;9.02;;;;;;;;;;4973815;28;20487;-68
2023/07/19 06:01:19;;;;;;;15.77;8.20;;;;;;;;;;4974218;28;20026;-68
2023/07/19 06:03:46;;;;;;;15.48;8.68;;;;;;;;;;4974137;28;20049;-68
2023/07/19 06:06:14;;;;;;;14.10;8.55;;;;;;;;;;4973936;28;20037;-68
2023/07/19 06:08:40;;;;;;;17.63;8.52;;;;;;;;;;4973425;28;20030;-68
2023/07/19 06:11:07;;;;;;;12.52;7.78;;;;;;;;;;4969888;28;20500;-73
2023/07/19 06:13:34;;;;;;;18.05;8.85;;;;;;;;;;4971613;28;20396;-72
2023/07/19 06:16:00;;;;;;;16.02;8.07;;;;;;;;;;4973093;28;20043;-73
2023/07/19 06:18:26;;;;;;;15.52;8.07;;;;;;;;;;4971699;28;20026;-72
2023/07/19 06:20:53;;;;;;;12.93;8.15;;;;;;;;;;4972979;28;20047;-72
2023/07/19 06:23:19;;;;;;;15.43;8.18;;;;;;;;;;4972361;28;20077;-72
2023/07/19 06:25:47;;;;;;;13.98;8.00;;;;;;;;;;4972769;28;20046;-72
2023/07/19 06:28:13;;;;;;;15.25;8.38;;;;;;;;;;4969996;28;20027;-74
2023/07/19 06:30:40;;;;;;;13.52;7.85;;;;;;;;;;4967792;28;20027;-72
2023/07/19 06:33:06;;;;;;;15.65;7.50;;;;;;;;;;4972630;28;20510;-72
2023/07/19 06:35:33;;;;;;;13.50;8.15;;;;;;;;;;4972329;28;20430;-74
2023/07/19 06:37:59;;;;;;;16.20;8.77;;;;;;;;;;4961657;28;20031;-73
2023/07/19 06:40:26;;;;;;;15.73;8.65;;;;;;;;;;4967106;28;20046;-74
2023/07/19 06:42:53;;;;;;;23.27;8.68;;;;;;;;;;4962030;28;20019;-73
2023/07/19 06:45:19;;;;;;;16.58;9.23;;;;;;;;;;4976509;28;20045;-73
2023/07/19 06:47:46;;;;;;;16.27;8.93;;;;;;;;;;4976034;28;20023;-73
2023/07/19 06:50:12;;;;;;;14.93;8.20;;;;;;;;;;4976352;28;20557;-73
2023/07/19 06:52:39;;;;;;;14.98;8.18;;;;;;;;;;4976035;28;20030;-74
2023/07/19 06:55:05;;;;;;;15.20;7.57;;;;;;;;;;4976198;28;20027;-74
2023/07/19 06:57:32;;;;;;;13.85;7.47;;;;;;;;;;4976488;28;20035;-74
2023/07/19 06:59:59;;;;;;;13.77;7.43;;;;;;;;;;4958439;28;20031;-73
2023/07/19 07:02:25;;;;;;;11.70;7.07;;;;;;;;;;4976360;28;20438;-73
2023/07/19 07:04:52;;;;;;;10.98;7.03;;;;;;;;;;4975871;28;20026;-74
2023/07/19 07:07:19;;;;;;;15.18;6.85;;;;;;;;;;4975626;28;20027;-73
2023/07/19 07:09:46;;;;;;;16.17;6.93;;;;;;;;;;4975994;28;20046;-74
2023/07/19 07:12:12;;;;;;;18.23;7.30;;;;;;;;;;4976118;28;20019;-73
2023/07/19 07:14:39;;;;;;;12.52;6.00;;;;;;;;;;4990608;28;20049;-73
2023/07/19 07:17:06;;;;;;;9.82;6.65;;;;;;;;;;4975683;28;20015;-73
2023/07/19 07:19:32;;;;;;;10.27;6.60;;;;;;;;;;4975638;28;20038;-74
2023/07/19 07:21:59;;;;;;;9.70;6.07;;;;;;;;;;4990825;28;20035;-73
2023/07/19 07:24:25;;;;;;;14.45;6.50;;;;;;;;;;4975528;28;20031;-73
2023/07/19 07:26:51;;;;;;;12.27;6.70;;;;;;;;;;4975570;28;20024;-72
2023/07/19 07:29:18;;;;;;;11.35;6.53;;;;;;;;;;4975659;28;20775;-73
2023/07/19 07:31:44;;;;;;;10.68;5.82;;;;;;;;;;4975360;28;20045;-73
2023/07/19 07:34:11;;;;;;;10.43;5.38;;;;;;;;;;4974966;28;20487;-74
2023/07/19 07:36:37;;;;;;;8.63;5.20;;;;;;;;;;4975409;28;20380;-72
2023/07/19 07:39:05;;;;;;;12.90;5.57;;;;;;;;;;4975555;28;20031;-75
2023/07/19 07:41:32;;;;;;;10.65;6.43;;;;;;;;;;4974963;28;20047;-77
2023/07/19 07:43:59;;;;;;;8.80;5.68;;;;;;;;;;4975636;28;20043;-72
2023/07/19 07:46:27;;;;;;;9.88;5.53;;;;;;;;;;4974653;28;20037;-72
2023/07/19 07:48:59;;;;;;;10.70;5.45;;;;;;;;;;4974608;28;20517;-71
2023/07/19 07:51:26;;;;;;;7.32;5.10;;;;;;;;;;4973047;28;20471;-71
2023/07/19 07:53:52;;;;;;;13.85;5.85;;;;;;;;;;4971732;28;20026;-71
2023/07/19 07:56:18;;;;;;;8.95;4.88;;;;;;;;;;4970627;28;20025;-71
2023/07/19 07:58:44;;;;;;;10.30;5.72;;;;;;;;;;4974308;28;20030;-70
2023/07/19 08:01:11;;;;;;;6.78;4.82;;;;;;;;;;4974557;28;20077;-71
2023/07/19 08:03:38;;;;;;;12.30;4.85;;;;;;;;;;4975056;28;20041;-71
2023/07/19 08:06:04;;;;;;;9.30;4.80;;;;;;;;;;4975123;28;20041;-70
2023/07/19 08:08:31;;;;;;;8.10;5.13;;;;;;;;;;4974452;28;20041;-70
2023/07/19 08:10:57;;;;;;;13.18;5.22;;;;;;;;;;4975153;28;20480;-69
2023/07/19 08:13:24;;;;;;;9.05;5.18;;;;;;;;;;4974856;28;20034;-70
2023/07/19 08:15:50;;;;;;;7.70;4.80;;;;;;;;;;4975061;28;20034;-70
2023/07/19 08:18:17;;;;;;;13.88;5.50;;;;;;;;;;4974517;28;20015;-70
2023/07/19 08:20:43;;;;;;;13.68;5.75;;;;;;;;;;4974818;28;20047;-70
2023/07/19 08:23:09;;;;;;;8.30;4.80;;;;;;;;;;4974788;28;20019;-70
2023/07/19 08:25:35;;;;;;;10.07;5.10;;;;;;;;;;4974660;28;20035;-70
2023/07/19 08:28:02;;;;;;;12.20;5.00;;;;;;;;;;4974180;28;20050;-70
2023/07/19 08:30:28;;;;;;;10.95;4.60;;;;;;;;;;4974547;28;20030;-70
2023/07/19 08:32:55;;;;;;;8.50;4.93;;;;;;;;;;4974634;28;20027;-70
2023/07/19 08:35:22;;;;;;;6.82;4.45;;;;;;;;;;4974629;28;20410;-70
2023/07/19 08:37:48;;;;;;;6.18;4.50;;;;;;;;;;4974816;28;20073;-70
2023/07/19 08:40:15;;;;;;;8.10;5.10;;;;;;;;;;4957808;28;20474;-70
2023/07/19 08:42:42;;;;;;;7.28;4.80;;;;;;;;;;4954135;29;20041;-70
2023/07/19 08:45:10;;;;;;;7.85;4.28;;;;;;;;;;4962085;28;20026;-70
2023/07/19 08:47:38;;;;;;;6.05;4.45;;;;;;;;;;4973599;28;20037;-70
2023/07/19 08:50:05;;;;;;;7.60;4.38;;;;;;;;;;4973203;28;20399;-70
2023/07/19 08:52:34;;;;;;;10.60;4.22;;;;;;;;;;4974133;28;20023;-71
2023/07/19 08:55:01;;;;;;;10.00;4.97;;;;;;;;;;4974433;28;20027;-71
2023/07/19 08:57:27;;;;;;;5.88;4.05;;;;;;;;;;4974526;28;20027;-70
2023/07/19 08:59:54;;;;;;;6.78;4.47;;;;;;;;;;4974213;28;20058;-70
2023/07/19 09:02:20;;;;;;;7.68;4.80;;;;;;;;;;4974087;28;20019;-70
2023/07/19 09:05:05;;;;;;;12.73;4.68;;;;;;;;;;4973063;28;20557;-71
2023/07/19 09:07:33;;;;;;;9.73;4.97;;;;;;;;;;4973489;28;20475;-69
2023/07/19 09:09:59;;;;;;;10.88;4.93;;;;;;;;;;4973825;28;20026;-70
2023/07/19 09:12:26;;;;;;;9.07;4.25;;;;;;;;;;4973621;28;20057;-70
2023/07/19 09:14:52;;;;;;;13.10;4.82;;;;;;;;;;4973994;28;20499;-71
2023/07/19 09:17:20;;;;;;;8.63;4.85;;;;;;;;;;4973280;28;20026;-70
2023/07/19 09:19:47;;;;;;;8.27;4.40;;;;;;;;;;4973758;28;20039;-70
2023/07/19 09:22:16;;;;;;;7.88;4.40;;;;;;;;;;4973888;28;20023;-71
2023/07/19 09:25:01;;;;;;;7.70;4.90;;;;;;;;;;4973997;28;20037;-70
2023/07/19 09:27:27;;;;;;;8.20;4.72;;;;;;;;;;4973963;28;20019;-71
2023/07/19 09:29:54;;;;;;;7.78;4.53;;;;;;;;;;4972392;28;20395;-70
2023/07/19 09:32:21;;;;;;;6.68;4.65;;;;;;;;;;4972501;28;20027;-68
2023/07/19 09:34:48;;;;;;;7.70;4.57;;;;;;;;;;4972074;28;20033;-68
2023/07/19 09:37:19;;;;;;;7.18;4.95;;;;;;;;;;4973891;28;20027;-68
2023/07/19 09:39:46;;;;;;;14.38;5.07;;;;;;;;;;4973768;28;20088;-68
2023/07/19 09:42:17;;;;;;;14.43;5.15;;;;;;;;;;4974078;28;20035;-68
2023/07/19 09:44:45;;;;;;;11.60;5.60;;;;;;;;;;4973109;28;20030;-68
2023/07/19 09:47:12;;;;;;;7.68;5.40;;;;;;;;;;4962366;28;20019;-68
2023/07/19 09:49:38;;;;;;;11.60;5.32;;;;;;;;;;4973837;28;20030;-68
2023/07/19 09:52:05;;;;;;;7.63;4.97;;;;;;;;;;4973288;28;20495;-68
2023/07/19 09:54:32;;;;;;;8.63;5.45;;;;;;;;;;4973602;28;20027;-68
2023/07/19 09:56:59;;;;;;;11.32;5.88;;;;;;;;;;4973862;28;20027;-68
2023/07/19 09:59:48;;;;;;;9.35;5.60;;;;;;;;;;4973154;28;20042;-68
2023/07/19 10:02:15;;;;;;;11.60;5.90;;;;;;;;;;4963427;28;20513;-68
2023/07/19 10:04:44;;;;;;;9.95;5.63;;;;;;;;;;4973894;28;20049;-68
2023/07/19 10:07:12;;;;;;;9.53;6.27;;;;;;;;;;4973854;28;20037;-67
2023/07/19 10:09:40;;;;;;;12.27;5.30;;;;;;;;;;4974190;28;20035;-68
2023/07/19 10:12:27;;;;;;;8.85;5.57;;;;;;;;;;4973730;28;20025;-68
2023/07/19 10:14:54;;;;;;;11.38;6.28;;;;;;;;;;4973534;28;20050;-68
2023/07/19 10:17:21;;;;;;;10.73;6.15;;;;;;;;;;4972536;28;20015;-69
2023/07/19 10:20:06;;;;;;;15.38;5.85;;;;;;;;;;4973791;28;20038;-68
2023/07/19 10:22:48;;;;;;;9.60;5.85;;;;;;;;;;4973806;28;20026;-68
2023/07/19 10:25:20;;;;;;;10.45;5.65;;;;;;;;;;4972643;28;20041;-68
2023/07/19 10:27:55;;;;;;;13.50;5.57;;;;;;;;;;4973988;28;20057;-68
2023/07/19 10:30:21;;;;;;;12.75;5.47;;;;;;;;;;4973208;28;20021;-68
2023/07/19 10:32:50;;;;;;;10.02;5.55;;;;;;;;;;4973841;28;20029;-69
2023/07/19 10:35:32;;;;;;;9.35;5.32;;;;;;;;;;4974159;28;20031;-68
2023/07/19 10:37:58;;;;;;;16.63;5.68;;;;;;;;;;4973773;28;20034;-68
2023/07/19 10:40:25;;;;;;;11.25;5.57;;;;;;;;;;4973482;28;20066;-68
2023/07/19 10:42:51;;;;;;;11.70;5.57;;;;;;;;;;4973292;28;20042;-68
2023/07/19 10:45:17;;;;;;;11.23;5.50;;;;;;;;;;4973526;28;20041;-68
2023/07/19 10:47:44;;;;;;;9.18;5.50;;;;;;;;;;4973534;28;20019;-68
2023/07/19 10:50:10;;;;;;;13.98;5.53;;;;;;;;;;4973816;28;20031;-68
2023/07/19 10:52:36;;;;;;;8.57;5.30;;;;;;;;;;4973449;28;20029;-68
2023/07/19 10:55:03;;;;;;;9.45;5.40;;;;;;;;;;4973802;28;20030;-68
2023/07/19 10:57:31;;;;;;;7.97;5.60;;;;;;;;;;4973111;28;20027;-68
2023/07/19 10:59:57;;;;;;;8.38;5.10;;;;;;;;;;4973206;28;20031;-68
2023/07/19 11:02:24;;;;;;;12.68;5.38;;;;;;;;;;4973437;28;20033;-68
2023/07/19 11:04:50;;;;;;;12.00;5.78;;;;;;;;;;4973452;28;20029;-68
2023/07/19 11:07:16;;;;;;;10.23;5.40;;;;;;;;;;4973442;28;20101;-68
2023/07/19 11:09:43;;;;;;;12.82;5.70;;;;;;;;;;4973448;28;20033;-68
2023/07/19 11:12:10;;;;;;;13.20;5.97;;;;;;;;;;4973094;28;20025;-68
2023/07/19 11:14:41;;;;;;;10.15;5.35;;;;;;;;;;4973226;28;20047;-68
2023/07/19 11:17:09;;;;;;;16.83;5.88;;;;;;;;;;4973135;28;20415;-68
2023/07/19 11:19:40;;;;;;;11.18;5.88;;;;;;;;;;4973186;28;20035;-68
2023/07/19 11:22:07;;;;;;;16.15;6.40;;;;;;;;;;4973515;28;20030;-68
2023/07/19 11:24:38;;;;;;;12.30;5.60;;;;;;;;;;4973285;28;20031;-68
2023/07/19 11:27:06;;;;;;;14.07;5.20;;;;;;;;;;4972908;28;20034;-68
2023/07/19 11:29:33;;;;;;;14.60;6.05;;;;;;;;;;4976764;28;20044;-68
2023/07/19 11:32:21;;;;;;;10.38;5.68;;;;;;;;;;4976629;28;20023;-68
2023/07/19 11:34:48;;;;;;;9.85;5.45;;;;;;;;;;4976737;28;20398;-67
2023/07/19 11:37:27;;;;;;;13.98;5.72;;;;;;;;;;4976647;28;20402;-68
2023/07/19 11:39:57;;;;;;;11.87;5.33;;;;;;;;;;4976438;28;20035;-68
2023/07/19 11:42:39;;;;;;;15.70;6.00;;;;;;;;;;4976146;28;20014;-68
2023/07/19 11:45:12;;;;;;;11.30;5.25;;;;;;;;;;4976332;28;20030;-68
2023/07/19 11:47:39;;;;;;;10.27;5.50;;;;;;;;;;4976430;28;20023;-68
2023/07/19 11:50:06;;;;;;;16.02;5.43;;;;;;;;;;4976509;28;20125;-68
2023/07/19 11:52:43;;;;;;;10.10;5.25;;;;;;;;;;4976418;28;20383;-68
2023/07/19 11:55:11;;;;;;;8.88;5.20;;;;;;;;;;4976228;28;20030;-68
2023/07/19 11:57:41;;;;;;;11.65;5.75;;;;;;;;;;4976379;28;20029;-68
2023/07/19 12:00:08;;;;;;;10.20;5.50;;;;;;;;;;4976148;28;20043;-67
2023/07/19 12:02:38;;;;;;;12.85;5.60;;;;;;;;;;4975983;28;20183;-67
2023/07/19 12:05:07;;;;;;;8.05;4.93;;;;;;;;;;4976440;28;20081;-67
2023/07/19 12:07:33;;;;;;;10.18;4.65;;;;;;;;;;4975921;28;20027;-68
2023/07/19 12:10:02;;;;;;;10.65;5.30;;;;;;;;;;4975808;28;20033;-68
2023/07/19 12:12:28;;;;;;;10.13;5.32;;;;;;;;;;4974525;28;20026;-69
2023/07/19 12:14:55;;;;;;;11.35;5.25;;;;;;;;;;4975891;28;20466;-68
2023/07/19 12:17:21;;;;;;;9.00;5.18;;;;;;;;;;4975777;28;20398;-68
2023/07/19 12:19:47;;;;;;;14.15;5.30;;;;;;;;;;4975791;28;20031;-68
2023/07/19 12:22:13;;;;;;;12.52;5.00;;;;;;;;;;4975943;28;20565;-68
2023/07/19 12:24:40;;;;;;;13.88;5.22;;;;;;;;;;4975736;28;20023;-68
2023/07/19 12:27:06;;;;;;;7.75;4.95;;;;;;;;;;4975876;28;20485;-68
2023/07/19 12:29:32;;;;;;;8.05;4.60;;;;;;;;;;4974555;28;20019;-68
2023/07/19 12:31:59;;;;;;;10.02;4.72;;;;;;;;;;4975820;28;20918;-68
2023/07/19 12:34:28;;;;;;;11.95;4.65;;;;;;;;;;4975642;28;20033;-68
2023/07/19 12:36:54;;;;;;;12.13;5.35;;;;;;;;;;4975504;28;20023;-68
2023/07/19 12:39:24;;;;;;;9.85;4.60;;;;;;;;;;4972847;28;20043;-68
2023/07/19 12:41:55;;;;;;;9.63;5.05;;;;;;;;;;4975491;28;20031;-68
2023/07/19 12:44:22;;;;;;;10.68;4.55;;;;;;;;;;4975231;28;20380;-69
2023/07/19 12:46:48;;;;;;;9.23;4.78;;;;;;;;;;4975484;28;20025;-68
2023/07/19 12:49:15;;;;;;;10.40;4.20;;;;;;;;;;4975224;28;20026;-68
2023/07/19 12:51:43;;;;;;;14.43;5.15;;;;;;;;;;4975383;28;20081;-68
2023/07/19 12:54:09;;;;;;;8.93;4.68;;;;;;;;;;4974907;28;20026;-68
2023/07/19 12:56:35;;;;;;;11.80;4.95;;;;;;;;;;4974888;28;20468;-68
2023/07/19 12:59:02;;;;;;;11.27;4.43;;;;;;;;;;4975099;28;20475;-68
2023/07/19 13:01:29;;;;;;;9.00;4.57;;;;;;;;;;4975424;28;20033;-68
2023/07/19 13:03:55;;;;;;;11.13;4.90;;;;;;;;;;4975301;28;20034;-68
2023/07/19 13:06:21;;;;;;;14.75;4.45;;;;;;;;;;4975014;28;20041;-68
2023/07/19 13:08:48;;;;;;;9.35;4.60;;;;;;;;;;4973397;28;20541;-68
2023/07/19 13:11:16;;;;;;;10.48;4.63;;;;;;;;;;4974877;28;20024;-68
2023/07/19 13:13:44;;;;;;;10.52;4.57;;;;;;;;;;4974768;28;20042;-68
2023/07/19 13:16:10;;;;;;;9.43;4.43;;;;;;;;;;4974631;28;20027;-68
2023/07/19 13:18:37;;;;;;;10.77;4.90;;;;;;;;;;4974632;28;20406;-68
2023/07/19 13:21:03;;;;;;;12.85;4.90;;;;;;;;;;4974679;28;20035;-69
2023/07/19 13:23:29;;;;;;;9.55;4.78;;;;;;;;;;4974657;28;20023;-68
2023/07/19 13:25:56;;;;;;;9.43;4.25;;;;;;;;;;4974803;28;20031;-68
2023/07/19 13:28:23;;;;;;;8.07;4.55;;;;;;;;;;4974640;28;20027;-68
2023/07/19 13:30:49;;;;;;;12.80;5.28;;;;;;;;;;4974562;28;20029;-68
2023/07/19 13:33:16;;;;;;;11.75;4.90;;;;;;;;;;4974846;28;20046;-68
2023/07/19 13:35:42;;;;;;;14.27;4.95;;;;;;;;;;4974478;28;20378;-69
2023/07/19 13:38:09;;;;;;;11.75;4.70;;;;;;;;;;4974206;28;20490;-68
2023/07/19 13:40:35;;;;;;;9.40;4.55;;;;;;;;;;4974219;28;20041;-68
2023/07/19 13:43:01;;;;;;;11.02;4.90;;;;;;;;;;4974403;28;20506;-68
2023/07/19 13:45:28;;;;;;;9.73;5.03;;;;;;;;;;4974336;28;20379;-68
2023/07/19 13:47:54;;;;;;;9.48;4.75;;;;;;;;;;4974457;28;20030;-68
2023/07/19 13:50:20;;;;;;;10.32;5.25;;;;;;;;;;4974089;28;20031;-68
2023/07/19 13:52:46;;;;;;;14.98;4.80;;;;;;;;;;4973996;28;20467;-68
2023/07/19 13:55:13;;;;;;;10.23;5.03;;;;;;;;;;4974482;28;20038;-68
2023/07/19 13:57:39;;;;;;;10.88;4.50;;;;;;;;;;4974025;28;20033;-68
2023/07/19 14:00:06;;;;;;;14.32;4.50;;;;;;;;;;4973976;28;20031;-68
2023/07/19 14:02:33;;;;;;;12.23;4.80;;;;;;;;;;4974052;28;20391;-69
2023/07/19 14:05:00;;;;;;;10.40;4.20;;;;;;;;;;4974328;28;20035;-68
2023/07/19 14:07:26;;;;;;;11.20;4.90;;;;;;;;;;4973646;28;20019;-68
2023/07/19 14:09:53;;;;;;;8.00;4.50;;;;;;;;;;4973837;28;20019;-68
2023/07/19 14:12:19;;;;;;;9.70;4.72;;;;;;;;;;4972591;28;20475;-68
2023/07/19 14:14:45;;;;;;;10.65;4.88;;;;;;;;;;4973844;28;20494;-68
2023/07/19 14:17:12;;;;;;;14.98;4.72;;;;;;;;;;4973717;28;20070;-68
2023/07/19 14:19:38;;;;;;;13.60;4.65;;;;;;;;;;4973755;28;20043;-68
2023/07/19 14:22:04;;;;;;;10.98;4.07;;;;;;;;;;4973712;28;20031;-68
2023/07/19 14:24:31;;;;;;;10.93;4.50;;;;;;;;;;4974000;28;20035;-68
2023/07/19 14:26:57;;;;;;;8.27;4.60;;;;;;;;;;4973732;28;20023;-68
2023/07/19 14:29:23;;;;;;;6.57;4.15;;;;;;;;;;4973633;28;20019;-68
2023/07/19 14:31:50;;;;;;;10.02;4.15;;;;;;;;;;4973570;28;20332;-68